sensor_id;sensor_type;location;lat;lon;timestamp;temperature;humidity
9209;DHT22;4639;48.862;9.188;2022-12-18T00:00:20;-6.30;99.90
9209;DHT22;4639;48.862;9.188;2022-12-18T00:02:46;-6.30;99.90
9209;DHT22;4639;48.862;9.188;2022-12-18T00:05:11;-6.30;99.90
9209;DHT22;4639;48.862;9.188;2022-12-18T00:07:40;-6.20;99.90
9209;DHT22;4639;48.862;9.188;2022-12-18T00:10:06;-6.20;99.90
9209;DHT22;4639;48.862;9.188;2022-12-18T00:12:31;-6.20;99.90
9209;DHT22;4639;48.862;9.188;2022-12-18T00:14:57;-6.30;99.90
9209;DHT22;4639;48.862;9.188;2022-12-18T00:17:22;-6.30;99.90
9209;DHT22;4639;48.862;9.188;2022-12-18T00:19:48;-6.30;99.90
9209;DHT22;4639;48.862;9.188;2022-12-18T00:22:13;-6.30;99.90
9209;DHT22;4639;48.862;9.188;2022-12-18T00:24:39;-6.40;99.90
9209;DHT22;4639;48.862;9.188;2022-12-18T00:27:04;-6.60;99.90
9209;DHT22;4639;48.862;9.188;2022-12-18T00:29:30;-6.70;99.90
9209;DHT22;4639;48.862;9.188;2022-12-18T00:31:56;-6.70;99.90
9209;DHT22;4639;48.862;9.188;2022-12-18T00:34:21;-6.80;99.90
9209;DHT22;4639;48.862;9.188;2022-12-18T00:36:47;-6.80;99.90
9209;DHT22;4639;48.862;9.188;2022-12-18T00:39:13;-6.70;99.90
9209;DHT22;4639;48.862;9.188;2022-12-18T00:41:39;-6.70;99.90
9209;DHT22;4639;48.862;9.188;2022-12-18T00:44:23;-6.70;99.90
9209;DHT22;4639;48.862;9.188;2022-12-18T00:46:49;-6.70;99.90
9209;DHT22;4639;48.862;9.188;2022-12-18T00:49:17;-6.80;99.90
9209;DHT22;4639;48.862;9.188;2022-12-18T00:51:43;-6.70;99.90
9209;DHT22;4639;48.862;9.188;2022-12-18T00:54:09;-6.80;99.90
9209;DHT22;4639;48.862;9.188;2022-12-18T00:56:36;-6.90;99.90
9209;DHT22;4639;48.862;9.188;2022-12-18T00:59:02;-7.00;99.90
9209;DHT22;4639;48.862;9.188;2022-12-18T01:01:28;-7.00;99.90
9209;DHT22;4639;48.862;9.188;2022-12-18T01:03:54;-7.00;99.90
9209;DHT22;4639;48.862;9.188;2022-12-18T01:06:19;-6.90;99.90
9209;DHT22;4639;48.862;9.188;2022-12-18T01:08:45;-7.00;99.90
9209;DHT22;4639;48.862;9.188;2022-12-18T01:11:13;-7.10;99.90
9209;DHT22;4639;48.862;9.188;2022-12-18T01:13:39;-7.10;99.90
9209;DHT22;4639;48.862;9.188;2022-12-18T01:16:05;-7.10;99.90
9209;DHT22;4639;48.862;9.188;2022-12-18T01:18:31;-7.10;99.90
9209;DHT22;4639;48.862;9.188;2022-12-18T01:20:56;-7.10;99.90
9209;DHT22;4639;48.862;9.188;2022-12-18T01:23:22;-7.10;99.90
9209;DHT22;4639;48.862;9.188;2022-12-18T01:25:47;-7.10;99.90
9209;DHT22;4639;48.862;9.188;2022-12-18T01:28:13;-7.10;99.90
9209;DHT22;4639;48.862;9.188;2022-12-18T01:30:39;-7.10;99.90
9209;DHT22;4639;48.862;9.188;2022-12-18T01:33:05;-7.10;99.90
9209;DHT22;4639;48.862;9.188;2022-12-18T01:35:31;-7.10;99.90
9209;DHT22;4639;48.862;9.188;2022-12-18T01:37:56;-7.10;99.90
9209;DHT22;4639;48.862;9.188;2022-12-18T01:40:22;-7.20;99.90
9209;DHT22;4639;48.862;9.188;2022-12-18T01:42:52;-7.20;99.90
9209;DHT22;4639;48.862;9.188;2022-12-18T01:45:24;-7.20;99.90
9209;DHT22;4639;48.862;9.188;2022-12-18T01:47:53;-7.20;99.90
9209;DHT22;4639;48.862;9.188;2022-12-18T01:50:21;-7.20;99.90
9209;DHT22;4639;48.862;9.188;2022-12-18T01:52:50;-7.10;99.90
9209;DHT22;4639;48.862;9.188;2022-12-18T01:55:20;-7.00;99.90
9209;DHT22;4639;48.862;9.188;2022-12-18T01:57:48;-7.00;99.90
9209;DHT22;4639;48.862;9.188;2022-12-18T02:00:17;-7.10;99.90
9209;DHT22;4639;48.862;9.188;2022-12-18T02:02:45;-7.20;99.90
9209;DHT22;4639;48.862;9.188;2022-12-18T02:05:12;-7.10;99.90
9209;DHT22;4639;48.862;9.188;2022-12-18T02:10:46;-7.20;99.90
9209;DHT22;4639;48.862;9.188;2022-12-18T02:13:30;-7.20;99.90
9209;DHT22;4639;48.862;9.188;2022-12-18T02:18:42;-7.20;99.90
9209;DHT22;4639;48.862;9.188;2022-12-18T02:21:45;-6.90;99.90
9209;DHT22;4639;48.862;9.188;2022-12-18T02:24:29;-7.10;99.90
9209;DHT22;4639;48.862;9.188;2022-12-18T02:27:00;-7.20;99.90
9209;DHT22;4639;48.862;9.188;2022-12-18T02:29:41;-7.10;99.90
9209;DHT22;4639;48.862;9.188;2022-12-18T02:32:13;-7.10;99.90
9209;DHT22;4639;48.862;9.188;2022-12-18T02:34:40;-7.10;99.90
9209;DHT22;4639;48.862;9.188;2022-12-18T02:37:11;-7.10;99.90
9209;DHT22;4639;48.862;9.188;2022-12-18T02:39:40;-7.00;99.90
9209;DHT22;4639;48.862;9.188;2022-12-18T02:42:07;-6.90;99.90
9209;DHT22;4639;48.862;9.188;2022-12-18T02:44:34;-6.90;99.90
9209;DHT22;4639;48.862;9.188;2022-12-18T02:47:01;-6.80;99.90
9209;DHT22;4639;48.862;9.188;2022-12-18T02:57:46;-6.90;99.90
9209;DHT22;4639;48.862;9.188;2022-12-18T03:00:23;-6.90;99.90
9209;DHT22;4639;48.862;9.188;2022-12-18T03:05:33;-7.00;99.90
9209;DHT22;4639;48.862;9.188;2022-12-18T03:08:12;-6.90;99.90
9209;DHT22;4639;48.862;9.188;2022-12-18T03:10:48;-6.90;99.90
9209;DHT22;4639;48.862;9.188;2022-12-18T03:13:28;-6.80;99.90
9209;DHT22;4639;48.862;9.188;2022-12-18T03:15:57;-7.00;99.90
9209;DHT22;4639;48.862;9.188;2022-12-18T03:18:36;-7.00;99.90
9209;DHT22;4639;48.862;9.188;2022-12-18T03:21:05;-6.90;99.90
9209;DHT22;4639;48.862;9.188;2022-12-18T03:23:36;-6.80;99.90
9209;DHT22;4639;48.862;9.188;2022-12-18T03:26:09;-6.70;99.90
9209;DHT22;4639;48.862;9.188;2022-12-18T03:28:42;-6.60;99.90
9209;DHT22;4639;48.862;9.188;2022-12-18T03:31:12;-6.80;99.90
9209;DHT22;4639;48.862;9.188;2022-12-18T03:33:42;-6.90;99.90
9209;DHT22;4639;48.862;9.188;2022-12-18T03:36:09;-6.90;99.90
9209;DHT22;4639;48.862;9.188;2022-12-18T03:38:34;-6.50;99.90
9209;DHT22;4639;48.862;9.188;2022-12-18T03:41:23;-6.80;99.90
9209;DHT22;4639;48.862;9.188;2022-12-18T03:49:25;-6.80;99.90
9209;DHT22;4639;48.862;9.188;2022-12-18T03:54:47;-7.00;99.90
9209;DHT22;4639;48.862;9.188;2022-12-18T03:57:20;-7.00;99.90
9209;DHT22;4639;48.862;9.188;2022-12-18T03:59:50;-6.90;99.90
9209;DHT22;4639;48.862;9.188;2022-12-18T04:02:18;-7.00;99.90
9209;DHT22;4639;48.862;9.188;2022-12-18T04:04:45;-7.00;99.90
9209;DHT22;4639;48.862;9.188;2022-12-18T04:07:12;-6.90;99.90
9209;DHT22;4639;48.862;9.188;2022-12-18T04:09:39;-6.90;99.90
9209;DHT22;4639;48.862;9.188;2022-12-18T04:12:06;-6.90;99.90
9209;DHT22;4639;48.862;9.188;2022-12-18T04:14:32;-6.90;99.90
9209;DHT22;4639;48.862;9.188;2022-12-18T04:17:01;-6.90;99.90
9209;DHT22;4639;48.862;9.188;2022-12-18T04:19:26;-6.90;99.90
9209;DHT22;4639;48.862;9.188;2022-12-18T04:21:52;-6.80;99.90
9209;DHT22;4639;48.862;9.188;2022-12-18T04:24:17;-6.70;99.90
9209;DHT22;4639;48.862;9.188;2022-12-18T04:26:43;-6.70;99.90
9209;DHT22;4639;48.862;9.188;2022-12-18T04:29:09;-6.70;99.90
9209;DHT22;4639;48.862;9.188;2022-12-18T04:31:34;-6.80;99.90
9209;DHT22;4639;48.862;9.188;2022-12-18T04:34:00;-6.90;99.90
9209;DHT22;4639;48.862;9.188;2022-12-18T04:36:25;-6.80;99.90
9209;DHT22;4639;48.862;9.188;2022-12-18T04:38:51;-6.70;99.90
9209;DHT22;4639;48.862;9.188;2022-12-18T04:41:17;-6.70;99.90
9209;DHT22;4639;48.862;9.188;2022-12-18T04:43:42;-6.80;99.90
9209;DHT22;4639;48.862;9.188;2022-12-18T04:46:08;-6.90;99.90
9209;DHT22;4639;48.862;9.188;2022-12-18T04:48:35;-7.10;99.90
9209;DHT22;4639;48.862;9.188;2022-12-18T04:51:01;-7.20;99.90
9209;DHT22;4639;48.862;9.188;2022-12-18T04:53:26;-7.20;99.90
9209;DHT22;4639;48.862;9.188;2022-12-18T04:56:12;-7.10;99.90
9209;DHT22;4639;48.862;9.188;2022-12-18T04:58:39;-7.00;99.90
9209;DHT22;4639;48.862;9.188;2022-12-18T05:01:05;-6.90;99.90
9209;DHT22;4639;48.862;9.188;2022-12-18T05:03:31;-7.10;99.90
9209;DHT22;4639;48.862;9.188;2022-12-18T05:05:57;-7.20;99.90
9209;DHT22;4639;48.862;9.188;2022-12-18T05:08:23;-7.10;99.90
9209;DHT22;4639;48.862;9.188;2022-12-18T05:10:48;-7.10;99.90
9209;DHT22;4639;48.862;9.188;2022-12-18T05:13:14;-7.10;99.90
9209;DHT22;4639;48.862;9.188;2022-12-18T05:15:40;-7.20;99.90
9209;DHT22;4639;48.862;9.188;2022-12-18T05:18:07;-7.20;99.90
9209;DHT22;4639;48.862;9.188;2022-12-18T05:20:33;-7.20;99.90
9209;DHT22;4639;48.862;9.188;2022-12-18T05:22:59;-7.30;99.90
9209;DHT22;4639;48.862;9.188;2022-12-18T05:25:24;-7.50;99.90
9209;DHT22;4639;48.862;9.188;2022-12-18T05:27:50;-7.50;99.90
9209;DHT22;4639;48.862;9.188;2022-12-18T05:30:16;-7.50;99.90
9209;DHT22;4639;48.862;9.188;2022-12-18T05:32:42;-7.50;99.90
9209;DHT22;4639;48.862;9.188;2022-12-18T05:35:09;-7.50;99.90
9209;DHT22;4639;48.862;9.188;2022-12-18T05:37:35;-7.60;99.90
9209;DHT22;4639;48.862;9.188;2022-12-18T05:40:02;-7.60;99.90
9209;DHT22;4639;48.862;9.188;2022-12-18T05:42:28;-7.70;99.90
9209;DHT22;4639;48.862;9.188;2022-12-18T05:44:54;-7.70;99.90
9209;DHT22;4639;48.862;9.188;2022-12-18T05:47:19;-7.60;99.90
9209;DHT22;4639;48.862;9.188;2022-12-18T05:49:45;-7.60;99.90
9209;DHT22;4639;48.862;9.188;2022-12-18T05:52:10;-7.40;99.90
9209;DHT22;4639;48.862;9.188;2022-12-18T05:54:36;-7.70;99.90
9209;DHT22;4639;48.862;9.188;2022-12-18T05:57:01;-7.80;99.90
9209;DHT22;4639;48.862;9.188;2022-12-18T05:59:27;-7.90;99.90
9209;DHT22;4639;48.862;9.188;2022-12-18T06:01:52;-7.60;99.90
9209;DHT22;4639;48.862;9.188;2022-12-18T06:04:18;-7.90;99.90
9209;DHT22;4639;48.862;9.188;2022-12-18T06:06:44;-7.90;99.90
9209;DHT22;4639;48.862;9.188;2022-12-18T06:09:09;-7.70;99.90
9209;DHT22;4639;48.862;9.188;2022-12-18T06:11:36;-7.90;99.90
9209;DHT22;4639;48.862;9.188;2022-12-18T06:14:03;-7.80;99.90
9209;DHT22;4639;48.862;9.188;2022-12-18T06:16:30;-7.90;99.90
9209;DHT22;4639;48.862;9.188;2022-12-18T06:18:56;-7.80;99.90
9209;DHT22;4639;48.862;9.188;2022-12-18T06:21:22;-8.10;99.90
9209;DHT22;4639;48.862;9.188;2022-12-18T06:23:48;-8.20;99.90
9209;DHT22;4639;48.862;9.188;2022-12-18T06:26:13;-8.20;99.90
9209;DHT22;4639;48.862;9.188;2022-12-18T06:28:40;-8.10;99.90
9209;DHT22;4639;48.862;9.188;2022-12-18T06:31:06;-8.10;99.90
9209;DHT22;4639;48.862;9.188;2022-12-18T06:33:32;-8.10;99.90
9209;DHT22;4639;48.862;9.188;2022-12-18T06:36:03;-8.10;99.90
9209;DHT22;4639;48.862;9.188;2022-12-18T06:38:30;-8.10;99.90
9209;DHT22;4639;48.862;9.188;2022-12-18T06:40:56;-8.10;99.90
9209;DHT22;4639;48.862;9.188;2022-12-18T06:43:21;-8.10;99.90
9209;DHT22;4639;48.862;9.188;2022-12-18T06:45:47;-8.10;99.90
9209;DHT22;4639;48.862;9.188;2022-12-18T06:48:20;-7.80;99.90
9209;DHT22;4639;48.862;9.188;2022-12-18T06:50:46;-8.00;99.90
9209;DHT22;4639;48.862;9.188;2022-12-18T06:53:12;-8.10;99.90
9209;DHT22;4639;48.862;9.188;2022-12-18T06:55:37;-8.10;99.90
9209;DHT22;4639;48.862;9.188;2022-12-18T06:58:03;-8.10;99.90
9209;DHT22;4639;48.862;9.188;2022-12-18T07:00:28;-8.10;99.90
9209;DHT22;4639;48.862;9.188;2022-12-18T07:02:54;-8.10;99.90
9209;DHT22;4639;48.862;9.188;2022-12-18T07:05:20;-8.20;99.90
9209;DHT22;4639;48.862;9.188;2022-12-18T07:07:45;-8.20;99.90
9209;DHT22;4639;48.862;9.188;2022-12-18T07:10:11;-8.20;99.90
9209;DHT22;4639;48.862;9.188;2022-12-18T07:12:36;-8.20;99.90
9209;DHT22;4639;48.862;9.188;2022-12-18T07:15:02;-8.20;99.90
9209;DHT22;4639;48.862;9.188;2022-12-18T07:17:28;-8.20;99.90
9209;DHT22;4639;48.862;9.188;2022-12-18T07:19:54;-8.20;99.90
9209;DHT22;4639;48.862;9.188;2022-12-18T07:22:20;-8.20;99.90
9209;DHT22;4639;48.862;9.188;2022-12-18T07:24:46;-8.10;99.90
9209;DHT22;4639;48.862;9.188;2022-12-18T07:27:12;-8.10;99.90
9209;DHT22;4639;48.862;9.188;2022-12-18T07:29:37;-8.00;99.90
9209;DHT22;4639;48.862;9.188;2022-12-18T07:32:03;-8.00;99.90
9209;DHT22;4639;48.862;9.188;2022-12-18T07:34:28;-8.10;99.90
9209;DHT22;4639;48.862;9.188;2022-12-18T07:36:54;-8.10;99.90
9209;DHT22;4639;48.862;9.188;2022-12-18T07:39:20;-7.80;99.90
9209;DHT22;4639;48.862;9.188;2022-12-18T07:41:45;-8.10;99.90
9209;DHT22;4639;48.862;9.188;2022-12-18T07:44:31;-8.00;99.90
9209;DHT22;4639;48.862;9.188;2022-12-18T07:46:56;-8.00;99.90
9209;DHT22;4639;48.862;9.188;2022-12-18T07:49:22;-8.00;99.90
9209;DHT22;4639;48.862;9.188;2022-12-18T07:51:47;-7.70;99.90
9209;DHT22;4639;48.862;9.188;2022-12-18T07:54:14;-7.90;99.90
9209;DHT22;4639;48.862;9.188;2022-12-18T07:56:40;-7.90;99.90
9209;DHT22;4639;48.862;9.188;2022-12-18T07:59:05;-7.90;99.90
9209;DHT22;4639;48.862;9.188;2022-12-18T08:01:31;-7.90;99.90
9209;DHT22;4639;48.862;9.188;2022-12-18T08:03:57;-7.80;99.90
9209;DHT22;4639;48.862;9.188;2022-12-18T08:06:23;-7.80;99.90
9209;DHT22;4639;48.862;9.188;2022-12-18T08:08:53;-7.70;99.90
9209;DHT22;4639;48.862;9.188;2022-12-18T08:11:20;-7.60;99.90
9209;DHT22;4639;48.862;9.188;2022-12-18T08:13:46;-7.70;99.90
9209;DHT22;4639;48.862;9.188;2022-12-18T08:16:11;-7.70;99.90
9209;DHT22;4639;48.862;9.188;2022-12-18T08:18:37;-7.60;99.90
9209;DHT22;4639;48.862;9.188;2022-12-18T08:21:14;-7.50;99.90
9209;DHT22;4639;48.862;9.188;2022-12-18T08:23:40;-7.40;99.90
9209;DHT22;4639;48.862;9.188;2022-12-18T08:26:06;-7.30;99.90
9209;DHT22;4639;48.862;9.188;2022-12-18T08:28:32;-7.10;99.90
9209;DHT22;4639;48.862;9.188;2022-12-18T08:30:58;-6.90;99.90
9209;DHT22;4639;48.862;9.188;2022-12-18T08:33:23;-6.80;99.90
9209;DHT22;4639;48.862;9.188;2022-12-18T08:35:49;-6.70;99.90
9209;DHT22;4639;48.862;9.188;2022-12-18T08:38:14;-6.40;99.90
9209;DHT22;4639;48.862;9.188;2022-12-18T08:40:40;-6.20;99.90
9209;DHT22;4639;48.862;9.188;2022-12-18T08:43:08;-6.00;99.90
9209;DHT22;4639;48.862;9.188;2022-12-18T08:45:53;-5.60;99.90
9209;DHT22;4639;48.862;9.188;2022-12-18T08:48:19;-5.70;99.90
9209;DHT22;4639;48.862;9.188;2022-12-18T08:50:54;-5.50;99.90
9209;DHT22;4639;48.862;9.188;2022-12-18T08:53:19;-5.40;99.90
9209;DHT22;4639;48.862;9.188;2022-12-18T08:55:45;-5.30;99.90
9209;DHT22;4639;48.862;9.188;2022-12-18T08:58:10;-5.20;99.90
9209;DHT22;4639;48.862;9.188;2022-12-18T09:00:36;-5.20;99.90
9209;DHT22;4639;48.862;9.188;2022-12-18T09:03:01;-5.20;99.90
9209;DHT22;4639;48.862;9.188;2022-12-18T09:05:27;-5.10;99.90
9209;DHT22;4639;48.862;9.188;2022-12-18T09:07:52;-5.00;99.90
9209;DHT22;4639;48.862;9.188;2022-12-18T09:10:18;-5.00;99.90
9209;DHT22;4639;48.862;9.188;2022-12-18T09:12:43;-4.90;99.90
9209;DHT22;4639;48.862;9.188;2022-12-18T09:15:09;-4.80;99.90
9209;DHT22;4639;48.862;9.188;2022-12-18T09:17:35;-4.60;99.90
9209;DHT22;4639;48.862;9.188;2022-12-18T09:20:00;-4.60;99.90
9209;DHT22;4639;48.862;9.188;2022-12-18T09:22:26;-4.70;99.90
9209;DHT22;4639;48.862;9.188;2022-12-18T09:24:51;-4.80;99.90
9209;DHT22;4639;48.862;9.188;2022-12-18T09:27:17;-4.80;99.90
9209;DHT22;4639;48.862;9.188;2022-12-18T09:29:42;-4.60;99.90
9209;DHT22;4639;48.862;9.188;2022-12-18T09:32:08;-4.50;99.90
9209;DHT22;4639;48.862;9.188;2022-12-18T09:34:34;-4.30;99.90
9209;DHT22;4639;48.862;9.188;2022-12-18T09:36:59;-4.00;99.90
9209;DHT22;4639;48.862;9.188;2022-12-18T09:39:25;-3.70;99.90
9209;DHT22;4639;48.862;9.188;2022-12-18T09:41:53;-3.50;99.90
9209;DHT22;4639;48.862;9.188;2022-12-18T09:44:27;-3.60;99.90
9209;DHT22;4639;48.862;9.188;2022-12-18T09:46:55;-3.90;99.90
9209;DHT22;4639;48.862;9.188;2022-12-18T09:49:27;-4.20;99.90
9209;DHT22;4639;48.862;9.188;2022-12-18T09:51:59;-4.30;99.90
9209;DHT22;4639;48.862;9.188;2022-12-18T09:54:40;-4.10;99.90
9209;DHT22;4639;48.862;9.188;2022-12-18T09:57:12;-3.60;99.90
9209;DHT22;4639;48.862;9.188;2022-12-18T09:59:39;-3.30;99.90
9209;DHT22;4639;48.862;9.188;2022-12-18T10:02:18;-2.90;99.90
9209;DHT22;4639;48.862;9.188;2022-12-18T10:05:04;-2.60;99.90
9209;DHT22;4639;48.862;9.188;2022-12-18T10:10:46;-2.10;99.90
9209;DHT22;4639;48.862;9.188;2022-12-18T10:13:26;-2.00;99.90
9209;DHT22;4639;48.862;9.188;2022-12-18T10:16:16;-1.90;99.90
9209;DHT22;4639;48.862;9.188;2022-12-18T10:21:15;-1.60;99.90
9209;DHT22;4639;48.862;9.188;2022-12-18T10:24:13;-1.60;99.90
9209;DHT22;4639;48.862;9.188;2022-12-18T10:26:41;-1.30;99.90
9209;DHT22;4639;48.862;9.188;2022-12-18T10:29:12;-1.20;99.90
9209;DHT22;4639;48.862;9.188;2022-12-18T10:31:37;-1.20;99.90
9209;DHT22;4639;48.862;9.188;2022-12-18T10:34:03;-1.00;99.90
9209;DHT22;4639;48.862;9.188;2022-12-18T10:36:29;-0.60;99.90
9209;DHT22;4639;48.862;9.188;2022-12-18T10:39:23;0.00;99.90
9209;DHT22;4639;48.862;9.188;2022-12-18T10:41:50;0.50;99.90
9209;DHT22;4639;48.862;9.188;2022-12-18T10:44:21;0.70;99.90
9209;DHT22;4639;48.862;9.188;2022-12-18T10:46:53;0.50;99.90
9209;DHT22;4639;48.862;9.188;2022-12-18T10:49:27;0.10;99.90
9209;DHT22;4639;48.862;9.188;2022-12-18T10:52:05;-0.20;99.90
9209;DHT22;4639;48.862;9.188;2022-12-18T10:54:32;-0.40;99.90
9209;DHT22;4639;48.862;9.188;2022-12-18T10:57:16;-0.60;99.90
9209;DHT22;4639;48.862;9.188;2022-12-18T10:59:53;-0.60;99.90
9209;DHT22;4639;48.862;9.188;2022-12-18T11:02:38;-0.70;99.90
9209;DHT22;4639;48.862;9.188;2022-12-18T11:07:50;-0.60;99.90
9209;DHT22;4639;48.862;9.188;2022-12-18T11:10:53;-0.50;99.90
9209;DHT22;4639;48.862;9.188;2022-12-18T11:13:20;-0.60;99.90
9209;DHT22;4639;48.862;9.188;2022-12-18T11:15:47;-0.40;99.90
9209;DHT22;4639;48.862;9.188;2022-12-18T11:18:20;-0.30;99.90
9209;DHT22;4639;48.862;9.188;2022-12-18T11:20:58;-0.30;99.90
9209;DHT22;4639;48.862;9.188;2022-12-18T11:23:25;-0.20;99.90
9209;DHT22;4639;48.862;9.188;2022-12-18T11:25:59;-0.10;99.90
9209;DHT22;4639;48.862;9.188;2022-12-18T11:28:28;-0.10;99.90
9209;DHT22;4639;48.862;9.188;2022-12-18T11:31:20;-0.30;99.90
9209;DHT22;4639;48.862;9.188;2022-12-18T11:34:26;-0.30;99.90
9209;DHT22;4639;48.862;9.188;2022-12-18T11:36:53;-0.10;99.90
9209;DHT22;4639;48.862;9.188;2022-12-18T11:39:37;0.10;99.90
9209;DHT22;4639;48.862;9.188;2022-12-18T11:42:19;0.20;99.90
9209;DHT22;4639;48.862;9.188;2022-12-18T11:49:55;-0.30;99.90
9209;DHT22;4639;48.862;9.188;2022-12-18T11:52:31;-0.40;99.90
9209;DHT22;4639;48.862;9.188;2022-12-18T11:55:04;-0.20;99.90
9209;DHT22;4639;48.862;9.188;2022-12-18T11:57:42;0.10;99.90
9209;DHT22;4639;48.862;9.188;2022-12-18T12:02:46;0.20;99.90
9209;DHT22;4639;48.862;9.188;2022-12-18T12:11:08;0.10;99.90
9209;DHT22;4639;48.862;9.188;2022-12-18T12:13:50;0.00;99.90
9209;DHT22;4639;48.862;9.188;2022-12-18T12:16:31;0.10;99.90
9209;DHT22;4639;48.862;9.188;2022-12-18T12:22:30;0.30;99.90
9209;DHT22;4639;48.862;9.188;2022-12-18T12:39:39;0.80;99.90
9209;DHT22;4639;48.862;9.188;2022-12-18T12:42:14;0.70;99.90
9209;DHT22;4639;48.862;9.188;2022-12-18T12:45:01;0.70;99.90
9209;DHT22;4639;48.862;9.188;2022-12-18T12:47:33;0.70;99.90
9209;DHT22;4639;48.862;9.188;2022-12-18T12:50:04;0.60;99.90
9209;DHT22;4639;48.862;9.188;2022-12-18T12:52:35;0.60;99.90
9209;DHT22;4639;48.862;9.188;2022-12-18T12:55:05;0.50;99.90
9209;DHT22;4639;48.862;9.188;2022-12-18T12:57:39;0.50;99.90
9209;DHT22;4639;48.862;9.188;2022-12-18T13:00:10;0.70;99.90
9209;DHT22;4639;48.862;9.188;2022-12-18T13:07:57;1.00;99.90
9209;DHT22;4639;48.862;9.188;2022-12-18T13:10:31;0.90;99.90
9209;DHT22;4639;48.862;9.188;2022-12-18T13:13:06;0.90;99.90
9209;DHT22;4639;48.862;9.188;2022-12-18T13:15:43;0.90;99.90
9209;DHT22;4639;48.862;9.188;2022-12-18T13:20:39;0.80;99.90
9209;DHT22;4639;48.862;9.188;2022-12-18T13:25:53;0.90;99.90
9209;DHT22;4639;48.862;9.188;2022-12-18T13:34:23;0.80;99.90
9209;DHT22;4639;48.862;9.188;2022-12-18T13:36:50;0.80;99.90
9209;DHT22;4639;48.862;9.188;2022-12-18T13:41:46;0.90;99.90
9209;DHT22;4639;48.862;9.188;2022-12-18T13:44:25;0.70;99.90
9209;DHT22;4639;48.862;9.188;2022-12-18T13:46:52;0.70;99.90
9209;DHT22;4639;48.862;9.188;2022-12-18T13:49:22;0.70;99.90
9209;DHT22;4639;48.862;9.188;2022-12-18T13:51:51;0.60;99.90
9209;DHT22;4639;48.862;9.188;2022-12-18T13:54:22;0.50;99.90
9209;DHT22;4639;48.862;9.188;2022-12-18T13:56:50;0.40;99.90
9209;DHT22;4639;48.862;9.188;2022-12-18T13:59:22;0.20;99.90
9209;DHT22;4639;48.862;9.188;2022-12-18T14:02:00;0.30;99.90
9209;DHT22;4639;48.862;9.188;2022-12-18T14:04:34;0.20;99.90
9209;DHT22;4639;48.862;9.188;2022-12-18T14:07:16;0.10;99.90
9209;DHT22;4639;48.862;9.188;2022-12-18T14:09:46;0.00;99.90
9209;DHT22;4639;48.862;9.188;2022-12-18T14:12:18;0.00;99.90
9209;DHT22;4639;48.862;9.188;2022-12-18T14:15:06;0.10;99.90
9209;DHT22;4639;48.862;9.188;2022-12-18T14:17:36;0.10;99.90
9209;DHT22;4639;48.862;9.188;2022-12-18T14:20:02;0.10;99.90
9209;DHT22;4639;48.862;9.188;2022-12-18T14:22:29;0.00;99.90
9209;DHT22;4639;48.862;9.188;2022-12-18T14:25:28;-0.10;99.90
9209;DHT22;4639;48.862;9.188;2022-12-18T14:28:14;-0.10;99.90
9209;DHT22;4639;48.862;9.188;2022-12-18T14:30:42;-0.20;99.90
9209;DHT22;4639;48.862;9.188;2022-12-18T14:33:15;-0.20;99.90
9209;DHT22;4639;48.862;9.188;2022-12-18T14:35:59;-0.30;99.90
9209;DHT22;4639;48.862;9.188;2022-12-18T14:38:58;-0.40;99.90
9209;DHT22;4639;48.862;9.188;2022-12-18T14:41:24;-0.30;99.90
9209;DHT22;4639;48.862;9.188;2022-12-18T14:43:51;-0.30;99.90
9209;DHT22;4639;48.862;9.188;2022-12-18T14:48:59;-0.30;99.90
9209;DHT22;4639;48.862;9.188;2022-12-18T14:51:28;-0.40;99.90
9209;DHT22;4639;48.862;9.188;2022-12-18T14:53:57;-0.40;99.90
9209;DHT22;4639;48.862;9.188;2022-12-18T14:56:31;-0.40;99.90
9209;DHT22;4639;48.862;9.188;2022-12-18T14:59:02;-0.50;99.90
9209;DHT22;4639;48.862;9.188;2022-12-18T15:01:37;-0.70;99.90
9209;DHT22;4639;48.862;9.188;2022-12-18T15:04:04;-0.80;99.90
9209;DHT22;4639;48.862;9.188;2022-12-18T15:09:00;-0.80;99.90
9209;DHT22;4639;48.862;9.188;2022-12-18T15:12:00;-0.80;99.90
9209;DHT22;4639;48.862;9.188;2022-12-18T15:14:38;-0.90;99.90
9209;DHT22;4639;48.862;9.188;2022-12-18T15:17:14;-0.90;99.90
9209;DHT22;4639;48.862;9.188;2022-12-18T15:19:42;-1.00;99.90
9209;DHT22;4639;48.862;9.188;2022-12-18T15:24:44;-1.10;99.90
9209;DHT22;4639;48.862;9.188;2022-12-18T15:27:40;-1.10;99.90
9209;DHT22;4639;48.862;9.188;2022-12-18T15:30:19;-1.30;99.90
9209;DHT22;4639;48.862;9.188;2022-12-18T15:32:46;-1.40;99.90
9209;DHT22;4639;48.862;9.188;2022-12-18T15:35:21;-1.40;99.90
9209;DHT22;4639;48.862;9.188;2022-12-18T15:37:47;-1.40;99.90
9209;DHT22;4639;48.862;9.188;2022-12-18T15:40:15;-1.40;99.90
9209;DHT22;4639;48.862;9.188;2022-12-18T15:42:41;-1.30;99.90
9209;DHT22;4639;48.862;9.188;2022-12-18T15:45:26;-1.30;99.90
9209;DHT22;4639;48.862;9.188;2022-12-18T15:47:52;-1.30;99.90
9209;DHT22;4639;48.862;9.188;2022-12-18T15:50:17;-1.30;99.90
9209;DHT22;4639;48.862;9.188;2022-12-18T15:52:45;-1.20;99.90
9209;DHT22;4639;48.862;9.188;2022-12-18T15:55:17;-1.20;99.90
9209;DHT22;4639;48.862;9.188;2022-12-18T15:58:01;-1.40;99.90
9209;DHT22;4639;48.862;9.188;2022-12-18T16:00:27;-1.50;99.90
9209;DHT22;4639;48.862;9.188;2022-12-18T16:02:52;-1.50;99.90
9209;DHT22;4639;48.862;9.188;2022-12-18T16:05:19;-1.40;99.90
9209;DHT22;4639;48.862;9.188;2022-12-18T16:07:46;-1.40;99.90
9209;DHT22;4639;48.862;9.188;2022-12-18T16:10:12;-1.30;99.90
9209;DHT22;4639;48.862;9.188;2022-12-18T16:12:38;-1.30;99.90
9209;DHT22;4639;48.862;9.188;2022-12-18T16:15:05;-1.30;99.90
9209;DHT22;4639;48.862;9.188;2022-12-18T16:17:31;-1.40;99.90
9209;DHT22;4639;48.862;9.188;2022-12-18T16:19:56;-1.40;99.90
9209;DHT22;4639;48.862;9.188;2022-12-18T16:22:24;-1.40;99.90
9209;DHT22;4639;48.862;9.188;2022-12-18T16:24:52;-1.40;99.90
9209;DHT22;4639;48.862;9.188;2022-12-18T16:27:18;-1.40;99.90
9209;DHT22;4639;48.862;9.188;2022-12-18T16:29:44;-1.50;99.90
9209;DHT22;4639;48.862;9.188;2022-12-18T16:32:21;-1.50;99.90
9209;DHT22;4639;48.862;9.188;2022-12-18T16:34:47;-1.70;99.90
9209;DHT22;4639;48.862;9.188;2022-12-18T16:37:14;-1.70;99.90
9209;DHT22;4639;48.862;9.188;2022-12-18T16:39:41;-1.60;99.90
9209;DHT22;4639;48.862;9.188;2022-12-18T16:42:11;-1.50;99.90
9209;DHT22;4639;48.862;9.188;2022-12-18T16:44:42;-1.60;99.90
9209;DHT22;4639;48.862;9.188;2022-12-18T16:47:08;-1.60;99.90
9209;DHT22;4639;48.862;9.188;2022-12-18T16:49:33;-1.70;99.90
9209;DHT22;4639;48.862;9.188;2022-12-18T16:51:59;-1.70;99.90
9209;DHT22;4639;48.862;9.188;2022-12-18T16:54:25;-1.80;99.90
9209;DHT22;4639;48.862;9.188;2022-12-18T16:56:51;-1.90;99.90
9209;DHT22;4639;48.862;9.188;2022-12-18T16:59:17;-1.90;99.90
9209;DHT22;4639;48.862;9.188;2022-12-18T17:01:43;-1.90;99.90
9209;DHT22;4639;48.862;9.188;2022-12-18T17:04:09;-1.90;99.90
9209;DHT22;4639;48.862;9.188;2022-12-18T17:06:39;-1.90;99.90
9209;DHT22;4639;48.862;9.188;2022-12-18T17:09:08;-2.00;99.90
9209;DHT22;4639;48.862;9.188;2022-12-18T17:11:34;-1.90;99.90
9209;DHT22;4639;48.862;9.188;2022-12-18T17:14:06;-1.90;99.90
9209;DHT22;4639;48.862;9.188;2022-12-18T17:16:32;-1.90;99.90
9209;DHT22;4639;48.862;9.188;2022-12-18T17:18:58;-1.90;99.90
9209;DHT22;4639;48.862;9.188;2022-12-18T17:21:23;-2.00;99.90
9209;DHT22;4639;48.862;9.188;2022-12-18T17:23:49;-2.00;99.90
9209;DHT22;4639;48.862;9.188;2022-12-18T17:26:15;-2.10;99.90
9209;DHT22;4639;48.862;9.188;2022-12-18T17:28:41;-2.10;99.90
9209;DHT22;4639;48.862;9.188;2022-12-18T17:31:18;-2.10;99.90
9209;DHT22;4639;48.862;9.188;2022-12-18T17:33:44;-2.10;99.90
9209;DHT22;4639;48.862;9.188;2022-12-18T17:36:10;-2.10;99.90
9209;DHT22;4639;48.862;9.188;2022-12-18T17:38:38;-2.10;99.90
9209;DHT22;4639;48.862;9.188;2022-12-18T17:41:09;-2.10;99.90
9209;DHT22;4639;48.862;9.188;2022-12-18T17:43:36;-2.10;99.90
9209;DHT22;4639;48.862;9.188;2022-12-18T17:46:06;-2.10;99.90
9209;DHT22;4639;48.862;9.188;2022-12-18T17:48:32;-2.00;99.90
9209;DHT22;4639;48.862;9.188;2022-12-18T17:51:02;-1.90;99.90